Terminal Aerodrome Forecast
Issued by NWS Sterling, VA

Home | Current Version | Previous Version | Text Only | Print | Product List | Glossary On
Versions: 1 2 3 4 5 6 7 8 9 10 11 12 13 14 15 16
000
FTUS41 KLWX 011900 AAB
TAFCHO
TAF AMD
KCHO 011947Z 0120/0218 16004KT P6SM OVC090
     FM020200 16005KT 5SM RA OVC050
     FM020500 17008KT 1 1/2SM RA OVC015
     FM020800 19010KT 1SM -RA OVC008 WS020/21040KT
     FM021100 21010KT 1SM -RA OVC008
     FM021400 25011KT P6SM BKN015
     FM021500 26012KT P6SM BKN090
     FM021700 28016KT P6SM SCT090=

USA.gov is the U.S. government's official web portal to all federal, state and local government web resources and services.